Latest Observation

113 Stations

10 Minute Data
as of 9/2/26 12:18 PM PDT
Station Date Time Temp (°F) RH (%) Dew Pt (°F) Wind Spd (mph) Wind Dir (°) Wind Gust (mph) Wind Gst Dir (°) Latest Rain (In) Soil Moist (%) Soil Temp (°F) Daily Rain (In) Daily Min Temp (°F) Daily Max Temp (°F) Daily Max Wind (mph)
Hobart Mills 9/2/26 1210 53.8   10.5 51   20 36.3   3.2 4.5   0.1 SW | 214 13.7   1.6 SW | 224 0.00 7.5   0.1 63.8   1.5 0.00 44.6   2.1 54.7   11.2 21.2   1.6
Prosser Dam 9/2/26 1210 55.6   11.1 48   19 36.1   3.2 8.0   1.2 SW | 222 16.8   0.7 SW | 228 0.00 5.3   0.1 61.7   1.2 0.00 41.5   3.9 56.2   11.4 20.7   3.0
West Incline Village 9/2/26 1210 50.7   6.9 55   17 35.3   2.8 8.4   2.9 SSW | 196 21.7   6.8 SSE | 153 0.00 11.8   0.1 57.8   0.8 0.00 40.4   8.1 51.7   7.1 26.8   8.0
Incline Village (Fairview Blvd) 9/2/26 1210 50.6   9.9 57   21 35.9   2.6 5.2   1.7 SW | 232 15.6   0.1 S | 179 0.00 7.7   0.0 71.2   1.0 0.00 42.9   8.1 53.1   8.2 19.6   4.1
Incline Village (Diamond Peak) 9/2/26 1210 49.4   8.3 59   19 35.8   2.2 4.7   0.9 WNW | 303 12.0   1.7 WSW | 239 0.00 2.5   0.0 59.6   1.9 0.00 40.2   9.3 49.7   10.6 15.5   1.7
Incline Village (Mill Creek) 5/30/36 1610 74.5 37 46.5 0.5 SW | 236 1.7 SSW | 213 0.00 0.0 0.0 0.00 74.4 74.5 1.7
Incline Village (Lakeshore Blvd) 9/2/26 1210 54.0   7.1 63   18 41.7   2.1 8.3   3.4 SW | 233 12.3   3.1 SW | 231 0.00 23.6   1.5 59.2   0.3 0.00 47.5   0.9 54.5   7.7 18.1   5.1
Glenbrook 9/2/26 1210 54.8   8.3 54   13 38.6   0.7 15.9   6.2 WSW | 256 20.1   1.5 WSW | 255 0.00 43.1   0.2 58.9   0.5 0.00 48.7   2.8 56.7   6.6 26.2   7.6
Zephyr Cove 9/2/26 1210 56.1   8.6 45   16 35.1   3.7 1.3   0.5 SSE | 162 5.7   2.6 SSW | 197 0.00 2.8   0.0 60.6   2.5 0.00 45.2   6.3 56.7   8.6 14.7   2.0
Kingsbury Grade 9/2/26 1210 55.1   8.0 44   15 33.5   3.0 3.4   0.1 W | 264 11.6   1.0 SW | 218 0.00 2.3   0.0 64.7   2.0 0.00 41.3   6.4 55.9   8.8 20.5   5.1
South Daggett Pass (Ridge) 9/2/26 1210 50.3   9.4 51   21 33.0   4.6 4.4   0.6 W | 280 16.2   4.2 SW | 236 0.00 2.2   0.0 63.6   0.8 0.00 38.5   9.7 51.0   9.5 23.1   5.3
Palomino Valley 9/2/26 1210 62.9   12.3 34   14 34.3   2.5 6.7   0.2 SSW | 211 16.4   1.6 SW | 233 0.00 6.6   0.1 75.2   1.3 0.00 49.3   4.0 63.5   12.7 29.8   14.5
East Cold Springs 9/2/26 1210 58.6   10.6 39   13 33.8   1.3 14.6   3.1 SW | 224 23.0   5.0 SW | 227 0.00 1.6   0.0 70.0   1.5 0.00 46.6   9.4 59.7   11.1 23.8   4.1
Peavine 8/22/26 1700 81.6   1.5 27   0 44.0   1.5 22.7   10.4 SW | 225 48.4   26.2 SW | 220 0.00 - 53.4   0.0 0.00 69.4   2.1 87.6   2.1 48.4   26.2
West Verdi Peak 9/2/26 1310 55.5   9.7 44   14 33.8   0.8 6.1   2.9 SSW | 194 20.4   9.1 WSW | 242 0.00 6.5   0.1 68.0   1.6 0.00 42.8   9.1 56.1   11.1 20.4   6.1
West Verdi 9/2/26 1210 59.4   10.7 40   16 35.0   3.4 9.6   1.1 SSW | 209 23.7   0.9 W | 266 0.00 6.2   0.0 78.7   1.6 0.00 50.2   7.6 59.8   11.2 34.9   6.0
South Verdi 9/2/26 1210 58.1   10.1 39   13 33.1   1.6 26.3   9.8 SSW | 212 44.7   20.2 SSW | 208 0.00 10.3   0.2 67.9   4.3 0.00 49.1   8.1 58.5   10.4 44.7   6.2
Northwest Reno 9/2/26 1210 59.4   11.7 36   16 32.4   4.3 28.0   1.1 SW | 231 41.4   4.7 SW | 232 0.00 24.9   0.2 74.8   2.6 0.00 52.0   7.1 60.2   12.3 47.9   2.9
North Lawton 8/28/26 1620 63.8   17.1 74   52 55.4   16.5 1.5   11.6 ESE | 121 5.1   19.0 SE | 124 0.00 - 78.2   0.0 0.05 59.2   7.5 71.9   13.3 20.4   4.6
West Reno (Mogul) 9/2/26 1210 59.5   11.1 37   17 33.5   5.5 14.6   1.0 WSW | 243 28.1   0.9 WSW | 242 0.00 19.6   0.1 79.0   0.3 0.00 51.1   6.1 60.0   12.8 33.3   2.2
Caughlin (Hunter Lake Trail) 9/2/26 1210 59.8   11.6 36   11 32.5   0.9 5.4   0.5 SSE | 162 14.5   5.6 SE | 141 0.00 16.5   0.1 73.0   1.3 0.00 50.0   7.0 60.3   11.4 19.6   7.1
ArrowCreek 9/2/26 1210 60.4   11.1 38   19 34.9   7.1 14.0   4.0 S | 188 22.4   5.3 SSW | 192 0.00 - 32.0   0.0 0.00 50.5   4.9 60.8   11.8 22.4   7.6
Tracy 9/2/26 1210 64.1   12.2 34   16 35.5   5.7 11.2   0.6 SW | 227 18.4   1.6 SW | 214 0.00 15.9   0.2 77.5   2.1 0.00 56.2   5.2 64.3   12.6 21.2   2.6
Virginia Highlands 9/2/26 1210 55.7   12.0 48   24 36.2   7.1 8.8   0.4 WSW | 253 16.5   2.4 WSW | 247 0.00 8.0   0.0 74.4   0.5 0.00 48.7   7.2 56.4   12.3 24.6   5.7
Virginia City 9/2/26 1210 55.2   11.5 42   21 32.5   6.8 9.7   2.3 S | 181 19.5   1.7 S | 184 0.00 4.7   0.0 72.0   1.9 0.00 47.3   8.1 55.4   12.6 30.2   3.1
Six Mile Canyon 9/2/26 1210 64.0   11.9 32   17 33.3   9.3 9.6   1.9 SSW | 200 13.8   5.5 SW | 218 0.00 12.1   0.2 74.4   2.9 0.00 54.3   7.3 64.3   12.4 17.1   6.8
Mt Rose Highway 9/2/26 1210 51.2   10.0 50   21 33.2   4.6 6.9   2.3 SSW | 211 21.0   6.6 WSW | 255 0.00 7.4   0.1 61.7   1.0 0.00 43.0   9.1 52.0   10.5 35.2   10.8
Pleasant Valley 9/2/26 1210 61.1   11.1 38   19 35.5   7.2 17.6   0.7 SW | 235 27.6   1.2 WSW | 247 0.00 2.3   0.1 76.8   1.5 0.00 54.6   3.2 61.4   12.0 30.2   0.4
New Washoe City 9/2/26 1210 60.3   10.8 42   21 37.0   7.9 15.3   0.5 WSW | 243 25.0   4.0 SW | 232 0.00 3.5   0.1 73.6   0.8 0.00 52.3   6.5 60.8   10.7 26.1   2.9
Franktown Creek 9/2/26 1210 61.0   9.6 43   19 38.7   5.9 4.5   0.6 WSW | 241 16.2   3.0 SSW | 212 0.00 7.0   0.1 72.2   0.6 0.00 53.7   2.6 62.5   9.1 29.3   2.1
Musgrove Creek 9/2/26 1210 59.2   10.3 45   22 38.2   7.6 5.0   1.9 N | 358 14.4   0.2 NNW | 329 0.00 10.2   0.1 60.7   0.3 0.00 49.9   5.3 60.4   9.8 16.4   2.0
East Carson 11/23/24 0110 28.6   28.4 - - 4.7   11.0 SW | 220 14.7   10.1 SW | 219 0.02 - 50.9   0.1 0.02 -25.9   79.1 42.9   14.6 16.0   10.7
Kings Canyon 9/2/26 1210 61.0   9.9 36   14 33.8   3.4 10.8   4.1 SSW | 211 23.5   8.4 SW | 223 0.00 4.2   0.0 67.2   2.1 0.00 51.1   10.0 61.9   10.0 28.1   3.6
Carson City (Voltaire Canyon) 9/2/26 1210 63.5   9.5 34   14 34.8   5.1 11.8   0.7 SW | 224 25.3   3.2 SW | 223 0.00 2.8   0.0 78.9   0.3 0.00 53.6   7.6 64.4   10.0 27.2   0.4
Jacks Valley 9/2/26 1210 62.4   9.5 35   13 34.3   3.5 9.6   3.2 WSW | 247 17.8   3.8 WSW | 238 0.00 4.5   0.1 72.5   4.2 0.00 52.3   5.6 63.5   8.9 32.4   6.6
Genoa 9/2/26 1210 65.9   8.0 34   13 36.7   4.9 2.6   0.4 SSW | 210 10.6   1.4 WNW | 301 0.00 2.3   0.1 67.2   6.6 0.00 53.0   8.6 67.0   8.0 14.9   0.6
South Genoa (Walleys Hot Springs) 9/2/26 1210 66.8   8.7 31   13 35.4   6.7 4.0   4.2 ESE | 116 10.2   9.4 ESE | 114 0.00 4.9   0.8 74.4   0.0 0.00 54.2   2.4 67.7   8.8 24.2   2.5
SW Gardnerville (HWY 88) 9/2/26 1210 65.4   7.2 32   11 35.0   4.6 13.8   2.0 SSE | 168 25.1   0.0 S | 169 0.00 2.8   0.0 69.5   0.9 0.00 51.7   7.9 65.9   7.8 25.1   6.5
Sheridan 9/2/26 1210 64.2   9.9 33   15 34.2   6.6 6.0   6.3 E | 91 14.2   7.1 ENE | 62 0.00 1.1   0.0 71.5   2.2 0.00 50.8   7.4 64.5   10.5 22.5   3.6
Ruhenstroth 9/2/26 1210 63.8   8.2 30   13 31.8   7.0 14.8   1.9 S | 184 23.5   4.1 S | 172 0.00 6.8   0.2 71.3   5.9 0.00 54.4   5.6 64.6   8.6 29.2   1.6
Double Spring 9/2/26 1210 61.3   8.1 30   12 29.3   5.5 14.2   8.0 WSW | 241 24.3   10.8 WSW | 243 0.00 25.0   0.4 67.5   5.3 0.00 38.9   12.0 61.6   8.4 24.3   4.5
North Topaz Lake 9/2/26 1210 66.5   7.7 26   11 30.5   7.2 8.1   0.3 S | 170 16.3   1.0 SSE | 158 0.00 7.5   0.3 72.4   12.1 0.00 52.8   8.2 67.3   8.1 18.3   1.0
Wild Oat Mountain 9/2/26 1210 62.1   8.5 28   12 28.8   6.1 11.8   1.4 SSW | 211 24.1   1.9 WSW | 238 0.00 5.6   0.1 68.6   3.1 0.00 49.8   8.4 63.2   8.7 25.7   0.9
Smith Valley 9/2/26 1210 66.9   10.1 26   13 31.4   8.0 11.0   4.0 SSW | 202 19.5   6.8 SW | 217 0.00 2.7   0.1 73.9   2.0 0.00 53.7   6.0 67.3   10.4 27.2   4.6
Pine Grove Mountain 9/2/26 1210 54.9   6.4 25   5 20.1   0.1 7.5   3.3 WSW | 237 14.5   3.1 S | 185 0.00 7.0   0.1 62.0   2.8 0.00 43.4   7.2 55.8   7.5 25.1   9.8
Paradise Hill 9/2/26 1210 62.6   15.3 36   18 35.6   3.5 16.2   4.9 SW | 231 22.2   0.6 SW | 229 0.00 10.0   0.1 72.4   2.5 0.00 54.1   1.2 65.6   13.6 39.9   16.2
Winnemucca 9/2/26 1210 65.4   11.5 28   7 31.2   2.1 11.8   2.2 SW | 221 20.7   5.0 SSW | 201 0.00 5.8   0.0 74.1   1.0 0.00 51.9   13.0 65.8   11.9 31.3   11.6
NE Elko 9/2/26 1210 67.0   9.8 19   2 23.2   10.6 10.4   10.4 SSW | 208 18.4   13.2 SSW | 196 0.00 5.7   0.0 70.3   0.9 0.00 52.1   5.9 68.6   8.9 27.0   6.2
North Elko 9/2/26 1210 64.3   10.7 19   5 21.6   14.0 11.4   5.5 SW | 219 25.2   0.1 SSW | 209 0.00 24.8   0.0 71.3   1.2 0.00 50.5   7.0 66.0   10.3 25.8   4.2
South Elko 9/2/26 1210 64.7   8.2 21   5 23.6   12.6 10.0   3.3 WSW | 238 17.5   4.3 WSW | 248 0.00 13.6   0.0 66.6   1.6 0.00 50.9   4.8 - 21.5   8.6
Lamoille 9/2/26 1210 63.7   9.5 21   7 22.6   14.7 7.6   5.8 W | 281 15.0   9.8 W | 270 0.00 6.3   0.1 65.6   0.2 0.00 51.6   0.1 70.0   4.8 28.0   4.1
Reid Gardner Sub 9/2/26 1210 92.1   1.1 9   18 24.1   29.5 16.2   7.3 S | 191 28.6   10.9 SSW | 202 0.00 25.5   1.4 87.1   1.8 0.00 73.9   2.0 93.2   0.6 28.6   5.2
Corn Creek 9/2/26 1210 87.4   0.7 8   7 17.6   16.8 5.1   16.5 SSE | 166 11.3   22.6 ESE | 116 0.00 3.0   0.1 85.5   2.7 0.00 68.7   3.2 88.7   0.4 22.2   11.7
Lucky Strike 9/2/26 1210 75.2   1.1 7   7 8.0   16.3 5.4   12.1 NNE | 33 12.9   16.5 ENE | 60 0.00 3.1   0.0 80.3   1.7 0.00 61.6   3.2 76.2   1.1 23.7   10.1
Lower Angel Peak 9/2/26 1210 71.3   1.4 10   4 10.8   9.5 3.4   7.9 NE | 35 11.6   12.7 NNW | 328 0.00 3.1   0.1 72.0   1.5 0.00 53.7   6.3 72.1   1.3 18.8   9.7
Angel Peak 9/2/26 1210 64.2   5.5 8   12 0.4   17.0 5.7   11.2 ESE | 117 14.4   11.3 E | 88 0.00 2.4   0.0 62.6   0.9 0.00 50.9   0.4 65.2   5.0 45.2   7.9
Upper Kyle Canyon 9/2/26 1210 63.4   0.8 8   15 0.5   23.5 10.3   3.2 NW | 304 21.0   1.9 NW | 318 0.00 7.7   0.1 73.9   0.7 0.00 56.3   0.5 65.0   0.6 36.5   5.6
Mt Charleston 9/2/26 1210 64.2   1.7 8   14 1.7   21.5 6.7   0.7 W | 262 20.4   0.5 WNW | 297 0.00 13.3   0.1 68.7   0.4 0.00 56.0   1.4 65.6   1.5 31.9   2.2
Mid Kyle Canyon 9/2/26 1210 73.2   1.5 7   10 4.4   19.7 12.2   5.0 W | 266 26.3   7.1 WNW | 282 0.00 5.8   0.0 73.2   0.9 0.00 57.1   2.5 74.4   2.0 29.4   3.6
Blue Diamond 9/2/26 1210 83.3   1.0 9   7 18.3   15.3 10.4   3.9 W | 261 18.8   7.2 WSW | 258 0.00 1.2   0.0 84.7   1.4 0.00 67.0   4.5 83.9   2.0 24.6   1.4
Artesian Sub 9/2/26 1210 92.5   0.8 7   10 20.5   22.7 7.0   1.7 SSE | 166 17.8   2.4 SSE | 151 0.00 11.7   0.1 93.5   0.5 0.00 77.6   0.8 93.4   0.7 21.5   1.4
North Henderson 9/2/26 1210 91.9   1.9 9   12 25.7   22.7 12.7   1.6 SSW | 209 23.1   2.4 SSW | 212 0.00 10.0   0.4 97.1   0.8 0.00 80.4   0.6 92.8   2.4 25.0   0.5
Sandy Valley 9/2/26 1210 83.4   3.0 11   7 23.3   14.6 9.7   0.9 SSW | 202 17.8   0.4 SSW | 201 0.00 8.0   0.3 84.8   2.6 0.00 69.8   3.5 84.4   2.7 21.0   2.9
Searchlight 9/2/26 1220 83.9   1.0 13   18 28.2   22.5 7.3   8.0 SE | 143 16.6   8.2 SSE | 168 0.00 5.8   0.1 83.9   2.2 0.00 65.1   2.8 84.7   1.2 17.9   10.8
Laughlin 9/2/26 1210 96.3   0.3 13   26 37.9   29.6 10.4   4.0 SSE | 149 18.8   2.7 SSE | 150 0.00 4.5   0.0 98.7   1.4 0.00 80.5   5.5 96.9   0.7 18.8   7.3
31Mission Hills 9/2/26 1210 88.2   0.3 8   18 19.7   29.9 16.4   3.2 WSW | 241 23.8   0.2 WSW | 257 0.00 6.8   0.5 88.3   1.9 0.00 74.8   2.0 88.9   0.3 27.2   10.6
32 Enterprise Sierra Cliffs 9/2/26 1210 85.1   1.7 6   9 12.2   21.4 19.4   6.4 SSW | 213 28.7   7.5 SSW | 207 0.00 1.3   0.1 84.3   3.2 0.00 72.3   4.0 86.1   1.6 32.4   6.1
29 Calico Basin 9/2/26 1210 82.0   1.0 6   7 9.3   18.9 21.2   2.5 SSW | 203 28.1   0.2 SSW | 212 0.00 2.4   0.2 81.2   2.9 0.00 69.3   2.8 82.8   1.3 40.2   8.4
28 Indian Springs 9/2/26 1210 84.7   1.4 7   7 13.8   17.5 4.2   2.9 N | 1 10.2   2.2 N | 354 0.00 4.5   0.1 84.2   2.0 0.00 62.7   6.7 84.9   1.9 26.6   10.6
30 Jean 9/2/26 1210 84.2   2.1 7   7 15.0   17.4 17.3   0.8 WSW | 252 25.0   1.5 WSW | 237 0.00 5.1   0.1 84.4   2.7 0.00 67.4   3.0 85.2   2.1 30.2   3.7
VC Highlands NW 9/2/26 1210 55.0   12.8 44   24 33.5   8.6 6.4   1.3 WSW | 258 18.4   2.0 SW | 231 0.00 1.5   0.2 62.8   7.7 0.00 47.0   8.0 55.2   12.8 32.4   13.7
Glenbrook-Spooner Summit 9/2/26 1020 47.8   10.9 53   23 31.4   4.3 7.2   2.4 W | 264 19.0   6.3 W | 264 0.00 7.7   0.1 63.7   2.0 0.00 41.4   8.8 48.5   10.7 22.1   4.6
Hobo Hot Springs 9/2/26 1210 65.2   10.1 29   14 32.3   7.5 15.8   7.0 SW | 217 26.1   3.7 SSW | 210 0.00 1.0   0.0 68.0   2.5 0.00 48.6   8.0 66.1   10.0 27.6   5.2
Jack Valley Ranch 2 9/2/26 1210 61.5   10.3 35   14 33.4   4.3 9.3   1.4 W | 261 22.4   1.1 WSW | 237 0.00 2.1   0.0 73.4   2.0 0.00 51.6   8.8 63.0   10.0 35.3   0.2
Genoa North 2 9/2/26 1210 64.3   9.3 30   11 32.6   3.5 7.9   3.4 S | 175 21.1   4.7 SSE | 156 0.00 0.8   0.0 71.2   4.0 0.00 53.3   6.8 66.3   8.6 23.1   4.1
Mottsville 2 9/2/26 1210 65.3   8.8 30   15 33.1   9.3 4.3   1.9 ENE | 78 9.6   7.6 NE | 56 0.00 1.3   0.1 70.9   1.5 0.00 52.8   4.2 66.0   8.4 16.4   2.7
Kingsbury Village 3 9/2/26 1210 51.7   8.2 44   15 30.6   2.6 4.8   1.5 NW | 311 17.1   8.1 N | 5 0.00 3.2   0.1 58.4   2.2 0.00 39.1   6.2 53.4   7.6 17.1   1.1
Kingsbury-Benjamin Dr 2 9/2/26 1210 53.4   8.4 43   16 31.3   4.4 4.2   0.5 W | 259 17.4   4.2 SW | 228 0.00 3.0   0.2 63.9   3.9 0.00 40.5   8.4 54.0   8.7 22.6   4.0
Smith Valley-Wellington 9/2/26 1210 69.4   6.7 21   8 27.9   5.4 7.1   1.1 SW | 228 18.9   5.2 SW | 222 0.00 3.5   0.1 78.5   1.8 0.00 54.8   6.7 70.1   6.7 22.8   4.7
Sheridan South 2 9/2/26 1210 64.2   8.4 30   11 32.5   4.1 6.0   2.9 SE | 133 19.4   0.5 SSE | 148 0.00 0.4   0.1 69.8   2.9 0.00 48.5   7.9 65.2   7.9 19.4   6.7
Silver Springs 9/2/26 1210 64.0   12.5 29   12 31.0   2.3 9.1   2.8 WSW | 248 15.5   1.4 WSW | 243 0.00 5.0   0.1 77.2   3.3 0.00 54.1   12.3 64.2   13.4 39.4   11.4
Fernley 9/2/26 1210 64.1   12.9 30   15 32.4   5.4 10.9   3.6 WSW | 244 18.1   1.7 SW | 217 0.00 3.1   0.0 72.5   7.0 0.00 53.1   8.1 64.3   14.1 27.2   7.8
Spanish Springs 9/2/26 1210 62.2   12.8 33   16 32.9   5.1 6.1   2.3 S | 178 13.2   2.7 SW | 217 0.00 10.2   0.1 74.4   2.7 0.00 52.5   0.8 62.7   13.6 21.6   5.7
Suttcliffe South 2 9/2/26 1210 64.1   12.0 31   13 32.6   3.1 13.9   10.0 SW | 229 21.4   9.3 WSW | 254 0.00 4.2   0.2 69.8   5.7 0.00 47.7   11.3 65.4   12.0 24.6   4.8
Lemmon Valley North 9/2/26 1210 59.5   11.4 35   17 31.8   6.0 13.5   1.3 SSW | 193 23.0   1.5 SSW | 196 0.00 2.0   0.0 70.6   2.1 0.00 45.8   15.0 59.8   12.2 33.9   6.1
Lemmon Valley NW 3 9/2/26 1210 60.2   12.3 32   15 30.4   4.8 10.4   0.1 WSW | 237 21.1   0.6 WSW | 251 0.00 1.2   0.1 70.5   5.1 0.00 49.8   10.9 60.7   13.1 23.2   0.4
VC Highlands North 9/2/26 1210 56.2   12.1 43   23 33.8   8.5 10.6   2.6 SW | 230 20.2   2.1 WSW | 251 0.00 4.6   0.5 66.5   15.2 0.00 42.9   13.6 56.5   12.9 26.8   5.6
Upper Voltaire Cyn 9/2/26 1210 59.8   8.4 35   14 31.9   4.9 13.7   0.9 S | 185 24.7   1.0 SSW | 204 0.00 1.1   0.1 68.1   3.9 0.00 49.4   7.7 61.1   9.3 26.0   6.8
Yerington NW 9/2/26 1210 65.1   10.7 30   13 32.5   5.0 7.6   2.7 WSW | 250 15.9   5.2 WSW | 247 0.00 7.2   0.1 72.7   2.8 0.00 55.0   2.5 65.5   10.7 30.1   11.9
Spanish Springs SW 9/2/26 1210 62.3   11.4 32   11 32.0   1.2 7.8   0.4 S | 190 14.3   1.0 S | 182 0.00 1.4   0.1 71.5   4.2 0.00 52.8   2.8 63.4   11.4 22.6   7.3
Cosgrave 2 8/27/26 0750 62.9   4.1 34   3 33.8   1.4 2.6   0.5 WSW | 246 4.1   1.0 W | 267 0.00 3.8   0.1 77.4   2.9 0.00 62.7   3.3 77.4   3.5 11.2   3.9
Winnemucca-Grass Valley 2 9/2/26 1210 63.0   12.8 31   10 32.0   1.5 13.8   10.9 SSW | 212 23.2   15.5 SSW | 198 0.00 7.8   0.1 66.1   3.3 0.00 43.4   8.4 65.2   11.4 25.7   10.6
Winnemucca-Dutch Flat Rd 9/2/26 1210 62.9   14.0 33   17 33.2   5.8 10.6   1.1 WSW | 246 18.3   2.1 SW | 231 0.00 6.0   0.1 72.9   0.7 0.00 52.4   7.6 63.4   14.3 30.8   9.8
Paradise Valley 2 9/2/26 1210 61.2   17.0 35   17 33.3   2.8 12.3   1.0 SW | 217 21.4   1.6 WSW | 240 0.00 12.6   0.1 71.2   1.1 0.00 51.6   1.3 63.0   16.3 26.0   6.2
Golconda 2 9/2/26 1210 65.4   11.5 24   6 27.9   2.6 7.5   0.8 SSW | 210 14.3   1.1 SSW | 197 0.00 1.9   0.1 74.2   3.7 0.00 51.0   9.4 66.7   11.3 37.3   15.2
Battle Mountain - South 9/2/26 1210 67.0   13.0 19   5 23.4   2.9 13.4   6.5 WSW | 241 21.2   4.2 WSW | 255 0.00 9.2   0.0 72.3   1.2 0.00 42.4   15.5 70.3   10.6 25.7   2.2
Geiger Summit 9/2/26 1210 52.3   12.5 100   0 52.3   12.5 6.1   1.0 WSW | 240 18.1   7.0 SSW | 209 0.00 6.2   0.1 60.1   3.1 0.00 42.7   10.2 52.6   12.7 18.5   2.5
Combs Canyon 3 9/2/26 1210 63.9   10.0 31   13 32.5   4.6 12.6   3.1 SSW | 205 25.6   6.2 S | 178 0.00 0.9   0.1 71.8   3.3 0.00 52.2   6.9 64.6   10.0 29.7   10.3
Clear Creek 9/2/26 1210 60.6   7.5 35   13 32.6   4.8 9.0   2.5 S | 191 18.1   3.9 S | 172 0.00 3.4   0.0 68.2   2.8 0.00 50.0   9.4 60.9   7.6 26.4   7.1
Eastlake 2 9/2/26 1210 61.2   9.8 36   17 34.3   6.9 13.4   2.9 SW | 232 25.0   2.2 S | 190 0.00 3.4   0.1 70.9   2.1 0.00 52.5   5.4 62.6   9.7 27.7   0.5
Lovelock-Colado 2 9/2/26 1210 65.2   11.9 29   11 32.4   1.1 12.0   4.4 S | 179 18.5   3.4 S | 179 0.00 - 73.6   2.9 0.00 45.6   8.7 65.6   12.5 22.1   7.0
Spanish Springs NW 9/2/26 1210 62.7   11.2 33   12 33.2   1.4 7.2   3.2 S | 170 12.3   3.7 S | 183 0.00 12.5   0.1 68.4   3.2 0.00 53.2   2.7 63.1   11.5 20.6   4.2
Battle Mountain NW 9/2/26 1210 68.0   12.3 20   4 25.3   4.1 10.9   1.6 WSW | 251 19.2   0.1 WSW | 254 0.00 8.8   0.0 75.4   1.4 0.00 48.8   12.2 68.9   12.0 24.2   4.7
Austin 2 9/2/26 1110 61.2   7.5 20   6 19.4   2.5 11.2   5.7 W | 278 18.1   6.7 W | 271 0.00 2.3   0.1 65.2   4.3 0.00 37.3   11.9 61.8   8.1 20.9   12.5
Elko-Osino 9/2/26 1210 68.1   9.1 16   4 20.8   13.0 14.6   0.5 SW | 220 24.3   1.1 SW | 222 0.00 1.4   0.0 73.2   0.4 0.00 51.9   4.6 68.7   9.5 25.8   7.7
Elko-Bill Fishpond 2 9/2/26 1210 64.0   10.3 19   9 21.0   17.9 3.8   10.0 SW | 222 14.0   10.1 SW | 224 0.00 3.4   0.0 65.8   0.4 0.00 52.2   5.8 65.2   9.9 18.4   8.0
Spring Creek SE 2 9/2/26 1210 65.3   9.9 17   4 19.4   13.1 4.9   15.0 WSW | 238 11.9   16.6 SSW | 213 0.00 0.2   0.1 66.1   1.3 0.00 48.2   0.6 66.0   9.9 29.1   5.2
Spring Creek NW 9/2/26 1200 66.0   8.2 18   5 20.7   12.6 6.7   12.6 WSW | 252 17.1   14.4 SW | 225 0.00 2.1   0.0 69.2   0.1 0.00 52.9   0.9 66.5   8.2 21.4   15.8
Elko-Moleen 9/2/26 1210 68.3   10.1 16   2 20.1   11.1 11.9   2.0 WSW | 252 20.1   2.4 W | 272 0.00 6.3   0.1 75.6   1.5 0.00 51.8   4.0 69.5   9.4 21.5   7.1
Elko-West 9/2/26 1210 67.5   9.8 17   3 21.4   11.4 10.6   6.6 SW | 236 19.5   7.0 WSW | 237 0.00 32.5   0.0 64.6   0.1 0.00 51.5   0.9 68.2   10.6 19.6   11.1
Elko-Adobe Creek 9/2/26 1210 59.7   10.7 20   2 18.3   11.3 11.9   7.6 WSW | 240 23.0   9.1 WSW | 240 0.00 18.4   0.1 67.1   0.5 0.00 45.6   13.4 61.1   10.2 23.6   11.9
Tuscarora SW 9/2/26 1210 60.8 21 20.1 14.4 WSW | 241 23.4 WSW | 248 0.00 6.9 71.2 0.00 42.8 61.9 25.6
Elko-Monument Peak 9/2/26 1210 63.0   11.0 18   2 18.8   11.5 12.7   5.4 WSW | 237 24.5   6.0 SW | 221 0.00 3.8   0.1 67.5   4.8 0.00 37.3   31.1 64.0   10.7 24.5   6.0
Max     96.3 100 52.3 28.0 - 44.7 - 0.00 43.1 98.7 0.00 80.5 96.9 47.9
Avg     64.8 30 28.7 9.9 - 19.3 - 0.00 7.1 70.8 - - - -
Min     49.4 6 0.4 0.5 - 1.7 - 0.00 0.0 0.0 0.00 37.3 49.7 1.7